createdAt,value
2023-01-29T00:00:53.661Z,3.77
2023-01-29T00:05:49.927Z,3.83
2023-01-29T00:10:46.166Z,4.24
2023-01-29T00:15:42.388Z,3.89
2023-01-29T00:20:38.678Z,3.79
2023-01-29T00:25:34.914Z,3.84
2023-01-29T00:30:31.236Z,4.36
2023-01-29T00:35:27.445Z,4.23
2023-01-29T00:40:23.706Z,3.87
2023-01-29T00:45:19.954Z,3.69
2023-01-29T00:50:16.703Z,4.4
2023-01-29T00:55:13.475Z,3.52
2023-01-29T01:00:11.775Z,4.18
2023-01-29T01:05:09.022Z,4.88
2023-01-29T01:10:06.253Z,4.71
2023-01-29T01:15:02.554Z,4.5
2023-01-29T01:19:57.775Z,4.69
2023-01-29T01:24:53.054Z,4.28
2023-01-29T01:29:48.291Z,3.77
2023-01-29T01:34:44.559Z,3.4
2023-01-29T01:39:40.812Z,3.67
2023-01-29T01:44:47.064Z,4.68
2023-01-29T01:49:46.345Z,3.79
2023-01-29T01:54:44.595Z,4.12
2023-01-29T01:59:43.820Z,4.87
2023-01-29T02:04:46.062Z,4.75
2023-01-29T02:09:50.279Z,4.78
2023-01-29T02:14:46.587Z,4.95
2023-01-29T02:19:50.806Z,4.54
2023-01-29T02:24:59.018Z,4.33
2023-01-29T02:30:03.238Z,4.37
2023-01-29T02:35:09.525Z,4.29
2023-01-29T02:40:10.718Z,4.79
2023-01-29T02:45:11.974Z,5.42
2023-01-29T02:50:14.777Z,5.88
2023-01-29T02:55:16.491Z,5.05
2023-01-29T03:00:18.176Z,4.53
2023-01-29T03:05:21.002Z,4.88
2023-01-29T03:10:23.209Z,3.8
2023-01-29T03:15:23.432Z,4.58
2023-01-29T03:20:22.703Z,4.28
2023-01-29T03:25:22.956Z,4.91
2023-01-29T03:30:21.193Z,4.57
2023-01-29T03:35:22.453Z,4.27
2023-01-29T03:40:18.255Z,5.09
2023-01-29T03:45:22.936Z,5.29
2023-01-29T03:50:31.190Z,5.21
2023-01-29T03:55:33.436Z,4.91
2023-01-29T04:00:37.653Z,5.06
2023-01-29T04:05:39.930Z,5.15
2023-01-29T04:10:40.196Z,5.2
2023-01-29T04:15:40.411Z,5.26
2023-01-29T04:20:37.695Z,5.64
2023-01-29T04:25:40.965Z,5.42
2023-01-29T04:30:46.240Z,5.42
2023-01-29T04:35:54.378Z,5.28
2023-01-29T04:40:55.656Z,5.77
2023-01-29T04:46:02.844Z,6.27
2023-01-29T04:51:06.096Z,5.83
2023-01-29T04:56:08.339Z,4.77
2023-01-29T05:01:10.602Z,5.54
2023-01-29T05:06:07.868Z,5.26
2023-01-29T05:11:06.066Z,5.11
2023-01-29T05:16:09.403Z,5.73
2023-01-29T05:21:06.619Z,5.69
2023-01-29T05:26:03.820Z,5.57
2023-01-29T05:31:00.230Z,5.63
2023-01-29T05:35:58.415Z,5.35
2023-01-29T05:40:54.644Z,5.41
2023-01-29T05:45:51.893Z,5.58
2023-01-29T05:50:48.134Z,5.39
2023-01-29T05:55:44.414Z,4.76
2023-01-29T06:00:40.651Z,5.17
2023-01-29T06:05:37.916Z,5.2
2023-01-29T06:10:34.187Z,5.35
2023-01-29T06:15:30.429Z,5.44
2023-01-29T06:20:26.741Z,4.91
2023-01-29T06:25:22.935Z,5.16
2023-01-29T06:30:19.432Z,4.92
2023-01-29T06:35:15.448Z,5.24
2023-01-29T06:40:10.736Z,5.05
2023-01-29T06:45:07.980Z,5.09
2023-01-29T06:50:04.234Z,5.06
2023-01-29T06:55:00.529Z,4.97
2023-01-29T06:59:55.802Z,4.91
2023-01-29T07:04:52.026Z,4.72
2023-01-29T07:09:48.287Z,4.91
2023-01-29T07:14:44.605Z,4.65
2023-01-29T07:19:40.823Z,4.97
2023-01-29T07:24:37.084Z,5.61
2023-01-29T07:29:33.372Z,5.52
2023-01-29T07:34:29.558Z,5.12
2023-01-29T07:39:25.804Z,5.67
2023-01-29T07:44:22.121Z,5.73
2023-01-29T07:49:18.363Z,5.47
2023-01-29T07:54:14.609Z,5.22
2023-01-29T07:59:10.882Z,6.04
2023-01-29T08:04:07.198Z,5.26
2023-01-29T08:09:03.398Z,6.03
2023-01-29T08:13:59.678Z,5.2
2023-01-29T08:18:55.970Z,6.02
2023-01-29T08:23:52.174Z,6.55
2023-01-29T08:28:48.439Z,6.11
2023-01-29T08:33:43.714Z,4.61
2023-01-29T08:38:40.931Z,5.66
2023-01-29T08:43:38.189Z,6.23
2023-01-29T08:48:34.475Z,6.31
2023-01-29T08:53:30.717Z,6.47
2023-01-29T08:58:26.988Z,6.03
2023-01-29T09:03:23.259Z,5.68
2023-01-29T09:08:19.507Z,4.74
2023-01-29T09:13:15.833Z,5.89
2023-01-29T09:18:11.057Z,5.66
2023-01-29T09:23:07.307Z,4.86
2023-01-29T09:28:03.588Z,4.85
2023-01-29T09:32:59.820Z,5.72
2023-01-29T09:37:56.078Z,5.25
2023-01-29T09:42:57.300Z,5.52
2023-01-29T09:47:57.570Z,4.29
2023-01-29T09:52:58.850Z,3.9
2023-01-29T09:57:58.059Z,4.75
2023-01-29T10:03:14.285Z,5.36
2023-01-29T10:08:24.522Z,4.2
2023-01-29T10:13:32.709Z,6.01
2023-01-29T10:23:50.176Z,3.29
2023-01-29T10:28:50.419Z,3.38
2023-01-29T10:34:02.072Z,4.2
2023-01-29T10:38:59.917Z,5.96
2023-01-29T10:44:10.098Z,4.2
2023-01-29T10:49:19.375Z,3.46
2023-01-29T10:54:28.551Z,2.93
2023-01-29T10:59:35.840Z,3.07
2023-01-29T11:04:34.061Z,3.6
2023-01-29T11:09:35.351Z,3.4
2023-01-29T11:14:38.564Z,2.99
2023-01-29T11:19:37.790Z,2.66
2023-01-29T11:24:38.087Z,3.1
2023-01-29T11:29:39.303Z,3.3
2023-01-29T11:34:41.577Z,3.01
2023-01-29T11:39:43.846Z,3.04
2023-01-29T11:44:45.051Z,3.29
2023-01-29T11:49:50.263Z,2.99
2023-01-29T11:54:50.545Z,3.2
2023-01-29T11:59:57.772Z,3.28
2023-01-29T12:04:58.002Z,3.45
2023-01-29T12:09:56.232Z,3.13
2023-01-29T12:15:01.491Z,2.99
2023-01-29T12:20:03.740Z,3.25
2023-01-29T12:25:07.982Z,3.15
2023-01-29T12:30:53.225Z,2.56
2023-01-29T12:35:54.422Z,2.87
2023-01-29T12:40:55.599Z,2.63
2023-01-29T12:45:54.887Z,2.55
2023-01-29T12:50:53.125Z,2.59
2023-01-29T12:55:53.357Z,2.47
2023-01-29T13:00:54.638Z,2.75
2023-01-29T13:05:55.831Z,2.71
2023-01-29T13:10:57.083Z,2.63
2023-01-29T13:15:56.373Z,2.55
2023-01-29T13:20:56.612Z,2.51
2023-01-29T13:25:52.895Z,2.29
2023-01-29T13:31:06.074Z,2.34
2023-01-29T13:36:02.319Z,2.49
2023-01-29T13:41:01.618Z,2.3
2023-01-29T13:46:06.855Z,2.36
2023-01-29T13:51:11.081Z,2.13
2023-01-29T13:56:18.347Z,2.13
2023-01-29T14:01:25.607Z,2.16
2023-01-29T14:06:35.793Z,2.26
2023-01-29T14:11:36.027Z,2.19
2023-01-29T14:16:42.714Z,2.69
2023-01-29T14:21:48.498Z,2.35
2023-01-29T14:26:54.710Z,2.54
2023-01-29T14:31:57.936Z,2.57
2023-01-29T14:36:58.219Z,2.27
2023-01-29T14:41:57.451Z,2.31
2023-01-29T14:47:02.683Z,1.88
2023-01-29T14:52:03.962Z,1.98
2023-01-29T14:57:05.225Z,2.08
2023-01-29T15:02:09.570Z,2.07
2023-01-29T15:07:15.704Z,1.88
2023-01-29T15:12:19.932Z,1.69
2023-01-29T15:17:26.109Z,1.58
2023-01-29T15:22:31.371Z,2.02
2023-01-29T15:27:27.605Z,1.88
2023-01-29T15:32:25.881Z,2.09
2023-01-29T15:37:25.115Z,1.85
2023-01-29T15:42:21.376Z,2.16
2023-01-29T15:47:20.643Z,1.89
2023-01-29T15:52:19.864Z,2.36
2023-01-29T15:57:20.145Z,2.24
2023-01-29T16:02:27.413Z,1.81
2023-01-29T16:07:24.673Z,2.12
2023-01-29T16:12:20.904Z,2.61
2023-01-29T16:17:22.162Z,1.89
2023-01-29T16:22:22.399Z,1.85
2023-01-29T16:27:19.651Z,1.44
2023-01-29T16:32:17.052Z,1.16
2023-01-29T16:37:19.212Z,1.33
2023-01-29T16:42:20.398Z,1.57
2023-01-29T16:47:22.625Z,1.77
2023-01-29T16:57:29.145Z,1.6
2023-01-29T17:02:27.393Z,1.37
2023-01-29T17:07:26.644Z,1.58
2023-01-29T17:12:25.891Z,1.65
2023-01-29T17:17:29.137Z,1.44
2023-01-29T17:22:25.377Z,1.54
2023-01-29T17:27:22.619Z,1.45
2023-01-29T17:32:18.918Z,1.61
2023-01-29T17:37:15.166Z,1.59
2023-01-29T17:42:12.417Z,1.44
2023-01-29T17:47:11.683Z,1.39
2023-01-29T17:52:07.924Z,1.83
2023-01-29T17:57:04.184Z,1.99
2023-01-29T18:02:00.506Z,2.18
2023-01-29T18:06:58.719Z,1.64
2023-01-29T18:11:55.029Z,1.8
2023-01-29T18:16:51.414Z,1.44
2023-01-29T18:21:47.479Z,1.25
2023-01-29T18:26:43.834Z,1.19
2023-01-29T18:31:39.998Z,1.37
2023-01-29T18:36:36.299Z,1.04
2023-01-29T18:41:36.524Z,0.72
2023-01-29T18:46:32.817Z,0.8
2023-01-29T18:51:29.012Z,0.64
2023-01-29T18:56:31.255Z,0.54
2023-01-29T19:01:37.524Z,0.55
2023-01-29T19:06:38.735Z,0.35
2023-01-29T19:11:38.978Z,0.38
2023-01-29T19:16:39.229Z,0.35
2023-01-29T19:21:40.511Z,0.27
2023-01-29T19:26:40.738Z,0.26
2023-01-29T19:31:41.081Z,0.36
2023-01-29T19:36:41.214Z,1.05
2023-01-29T19:41:37.676Z,0.56
2023-01-29T19:46:37.735Z,1.98
2023-01-29T19:51:39.012Z,2.48
2023-01-29T19:56:40.293Z,3.36
2023-01-29T20:01:44.537Z,3.56
2023-01-29T20:06:45.729Z,3.67
2023-01-29T20:11:45.986Z,2.83
2023-01-29T20:16:46.240Z,2.92
2023-01-29T20:21:47.502Z,3
2023-01-29T20:26:47.792Z,2.64
2023-01-29T20:31:44.065Z,1.83
2023-01-29T20:36:41.229Z,2.75
2023-01-29T20:41:38.505Z,2.85
2023-01-29T20:46:35.783Z,3.24
2023-01-29T20:51:38.004Z,1.91
2023-01-29T20:56:38.377Z,1.94
2023-01-29T21:01:40.512Z,2.09
2023-01-29T21:06:41.752Z,1.83
2023-01-29T21:11:42.012Z,2.07
2023-01-29T21:16:38.284Z,1.87
2023-01-29T21:21:34.534Z,2.21
2023-01-29T21:26:32.775Z,1.94
2023-01-29T21:31:35.030Z,2.24
2023-01-29T21:36:31.258Z,2.48
2023-01-29T21:41:31.543Z,2.72
2023-01-29T21:46:27.769Z,2.72
2023-01-29T21:51:28.026Z,2.8
2023-01-29T21:56:24.262Z,3.2
2023-01-29T22:01:37.498Z,3.54
2023-01-29T22:06:24.836Z,2.71
2023-01-29T22:11:21.065Z,2.69
2023-01-29T22:16:17.302Z,1.96
2023-01-29T22:21:13.580Z,1.59
2023-01-29T22:26:10.888Z,1.69
2023-01-29T22:31:07.105Z,1.82
2023-01-29T22:36:03.336Z,2.06
2023-01-29T22:40:59.595Z,1.78
2023-01-29T22:45:55.877Z,1.76
2023-01-29T22:50:56.133Z,1.41
2023-01-29T22:55:53.392Z,1.78
2023-01-29T23:00:49.597Z,1.48
2023-01-29T23:05:45.906Z,1.28
2023-01-29T23:10:43.128Z,1.07
2023-01-29T23:15:39.461Z,1.07
2023-01-29T23:20:35.625Z,1.42
2023-01-29T23:25:31.942Z,1.03
2023-01-29T23:30:28.235Z,0.95
2023-01-29T23:35:24.430Z,1.17
2023-01-29T23:40:20.702Z,1.13
2023-01-29T23:45:16.940Z,0.9
2023-01-29T23:50:13.245Z,0.7
2023-01-29T23:55:09.466Z,1.02
